Time;durP1;ratioP1;P1;durP2;ratioP2;P2;SDS_P1;SDS_P2;PMS_P1;PMS_P2;Temp;Humidity;BMP_temperature;BMP_pressure;BME280_temperature;BME280_humidity;BME280_pressure;Samples;Min_cycle;Max_cycle;Signal;HPM_P1;HPM_P2
2022/11/24 00:01:04;;;;;;;9.40;2.63;;;;;;;;;;5043309;28;19958;-71
2022/11/24 00:03:29;;;;;;;8.02;3.10;;;;;;;;;;5047691;28;20272;-76
2022/11/24 00:05:55;;;;;;;8.82;2.95;;;;;;;;;;5049425;28;20028;-76
2022/11/24 00:08:20;;;;;;;7.73;3.07;;;;;;;;;;5050849;28;20108;-76
2022/11/24 00:10:45;;;;;;;7.90;2.70;;;;;;;;;;5038179;28;20308;-76
2022/11/24 00:13:10;;;;;;;8.07;3.50;;;;;;;;;;5042524;28;20071;-76
2022/11/24 00:15:36;;;;;;;8.45;2.47;;;;;;;;;;5043869;28;20029;-76
2022/11/24 00:18:02;;;;;;;5.32;1.67;;;;;;;;;;5043172;28;20029;-71
2022/11/24 00:20:27;;;;;;;7.60;2.28;;;;;;;;;;5043721;28;20025;-74
2022/11/24 00:22:52;;;;;;;5.25;2.17;;;;;;;;;;5041484;28;20591;-75
2022/11/24 00:25:18;;;;;;;6.72;2.20;;;;;;;;;;5040247;28;20104;-74
2022/11/24 00:27:43;;;;;;;8.83;2.27;;;;;;;;;;5040680;28;20048;-75
2022/11/24 00:30:09;;;;;;;10.53;2.30;;;;;;;;;;5044005;28;20272;-74
2022/11/24 00:32:34;;;;;;;7.68;2.38;;;;;;;;;;5039175;28;20268;-75
2022/11/24 00:34:59;;;;;;;8.20;2.00;;;;;;;;;;5037410;28;20030;-73
2022/11/24 00:37:25;;;;;;;7.63;2.08;;;;;;;;;;5042215;28;20013;-76
2022/11/24 00:39:50;;;;;;;9.45;2.50;;;;;;;;;;5046214;28;20253;-71
2022/11/24 00:42:15;;;;;;;6.47;2.37;;;;;;;;;;5042319;28;20044;-71
2022/11/24 00:44:41;;;;;;;8.95;2.38;;;;;;;;;;5039392;28;20762;-71
2022/11/24 00:47:06;;;;;;;10.23;2.17;;;;;;;;;;5041712;28;20021;-71
2022/11/24 00:49:31;;;;;;;7.03;2.40;;;;;;;;;;5041271;28;20140;-71
2022/11/24 00:51:57;;;;;;;6.57;2.22;;;;;;;;;;5045861;28;20271;-71
2022/11/24 00:54:22;;;;;;;6.97;2.25;;;;;;;;;;5047661;28;20025;-73
2022/11/24 00:56:47;;;;;;;11.15;2.03;;;;;;;;;;5045533;28;20036;-73
2022/11/24 00:59:12;;;;;;;9.05;3.10;;;;;;;;;;5041107;28;20088;-73
2022/11/24 01:01:38;;;;;;;6.23;2.03;;;;;;;;;;5038751;28;20120;-73
2022/11/24 01:04:04;;;;;;;6.80;2.13;;;;;;;;;;5041843;28;20338;-73
2022/11/24 01:06:31;;;;;;;7.38;2.05;;;;;;;;;;5042508;28;20052;-73
2022/11/24 01:08:56;;;;;;;10.50;2.85;;;;;;;;;;5045027;28;20167;-73
2022/11/24 01:11:26;;;;;;;6.28;1.98;;;;;;;;;;5051852;28;20033;-72
2022/11/24 01:13:56;;;;;;;10.27;2.55;;;;;;;;;;5051883;28;20452;-81
2022/11/24 01:16:40;;;;;;;10.25;3.15;;;;;;;;;;5038619;28;20375;-75
2022/11/24 01:19:05;;;;;;;7.47;2.90;;;;;;;;;;5048903;28;20013;-74
2022/11/24 01:21:30;;;;;;;4.47;1.90;;;;;;;;;;5037759;28;20029;-75
2022/11/24 01:23:56;;;;;;;7.37;2.10;;;;;;;;;;5044280;28;20021;-76
2022/11/24 01:26:21;;;;;;;9.18;2.92;;;;;;;;;;5059124;28;20320;-75
2022/11/24 01:28:51;;;;;;;9.80;2.10;;;;;;;;;;5053064;28;20074;-74
2022/11/24 01:31:16;;;;;;;4.80;2.13;;;;;;;;;;5044648;28;20446;-71
2022/11/24 01:33:41;;;;;;;8.85;2.25;;;;;;;;;;5040259;28;20025;-71
2022/11/24 01:36:07;;;;;;;5.30;2.63;;;;;;;;;;5043478;28;20109;-72
2022/11/24 01:38:32;;;;;;;10.48;3.63;;;;;;;;;;5044634;28;20396;-71
2022/11/24 01:41:02;;;;;;;6.22;1.77;;;;;;;;;;5041946;28;20511;-71
2022/11/24 01:43:27;;;;;;;11.45;4.63;;;;;;;;;;5053725;28;20017;-71
2022/11/24 01:45:52;;;;;;;6.70;2.07;;;;;;;;;;5046413;28;20571;-72
2022/11/24 01:48:28;;;;;;;8.15;2.25;;;;;;;;;;5042901;28;20940;-71
2022/11/24 01:50:57;;;;;;;9.95;2.72;;;;;;;;;;5038112;28;20030;-77
2022/11/24 01:53:23;;;;;;;10.18;2.58;;;;;;;;;;5047895;28;20025;-76
2022/11/24 01:55:49;;;;;;;6.70;2.45;;;;;;;;;;5048885;28;20523;-74
2022/11/24 01:58:17;;;;;;;10.55;2.35;;;;;;;;;;5057542;28;20099;-75
2022/11/24 02:00:43;;;;;;;6.60;2.33;;;;;;;;;;5048507;28;20047;-75
2022/11/24 02:03:10;;;;;;;4.10;1.88;;;;;;;;;;5039698;28;20025;-76
2022/11/24 02:05:42;;;;;;;9.70;1.90;;;;;;;;;;5045029;28;20024;-75
2022/11/24 02:08:11;;;;;;;5.57;2.20;;;;;;;;;;5046252;28;20033;-71
2022/11/24 02:10:36;;;;;;;9.65;3.08;;;;;;;;;;5041917;28;20030;-84
2022/11/24 02:13:02;;;;;;;6.80;3.42;;;;;;;;;;5048021;28;20041;-81
2022/11/24 02:15:27;;;;;;;10.75;2.97;;;;;;;;;;5057140;28;20082;-80
2022/11/24 02:17:53;;;;;;;9.57;2.13;;;;;;;;;;5042071;28;20016;-80
2022/11/24 02:20:18;;;;;;;6.72;2.03;;;;;;;;;;5039307;28;20441;-81
2022/11/24 02:23:00;;;;;;;5.45;2.10;;;;;;;;;;5043212;28;20024;-80
2022/11/24 02:25:25;;;;;;;10.00;2.60;;;;;;;;;;5041471;28;20136;-74
2022/11/24 02:27:51;;;;;;;8.57;1.97;;;;;;;;;;5042053;28;20523;-70
2022/11/24 02:30:16;;;;;;;4.32;1.88;;;;;;;;;;5034697;28;20781;-74
2022/11/24 02:32:42;;;;;;;8.20;3.15;;;;;;;;;;5039962;28;20049;-75
2022/11/24 02:35:08;;;;;;;3.65;1.70;;;;;;;;;;5048910;28;20032;-75
2022/11/24 02:37:33;;;;;;;4.38;1.80;;;;;;;;;;5037624;28;20368;-74
2022/11/24 02:39:59;;;;;;;10.03;3.17;;;;;;;;;;5044711;28;20017;-74
2022/11/24 02:42:25;;;;;;;4.10;1.40;;;;;;;;;;5039156;28;20362;-74
2022/11/24 02:44:53;;;;;;;5.30;2.40;;;;;;;;;;5045204;28;20276;-80
2022/11/24 02:47:18;;;;;;;6.75;2.00;;;;;;;;;;5056369;28;20330;-74
2022/11/24 02:49:44;;;;;;;7.18;2.35;;;;;;;;;;5041022;28;20029;-73
2022/11/24 02:52:09;;;;;;;7.97;2.30;;;;;;;;;;5049543;28;20021;-75
2022/11/24 02:54:34;;;;;;;6.18;1.92;;;;;;;;;;5036287;28;20295;-75
2022/11/24 02:56:59;;;;;;;8.43;1.95;;;;;;;;;;5047716;28;20092;-74
2022/11/24 02:59:24;;;;;;;6.30;2.43;;;;;;;;;;5041780;28;20025;-76
2022/11/24 03:01:50;;;;;;;8.63;2.63;;;;;;;;;;5037709;28;20834;-74
2022/11/24 03:04:15;;;;;;;5.80;1.48;;;;;;;;;;5046146;28;20029;-90
2022/11/24 03:06:42;;;;;;;6.55;2.08;;;;;;;;;;5040239;28;20562;-75
2022/11/24 03:09:07;;;;;;;8.68;2.38;;;;;;;;;;5044913;28;20029;-75
2022/11/24 03:11:33;;;;;;;6.97;1.92;;;;;;;;;;5043898;28;20029;-74
2022/11/24 03:13:58;;;;;;;6.68;2.10;;;;;;;;;;5046202;28;20029;-74
2022/11/24 03:16:23;;;;;;;4.03;1.70;;;;;;;;;;5043254;28;20049;-75
2022/11/24 03:18:52;;;;;;;4.97;1.98;;;;;;;;;;5043764;28;20663;-75
2022/11/24 03:21:18;;;;;;;6.72;1.83;;;;;;;;;;5044001;28;20395;-90
2022/11/24 03:23:43;;;;;;;7.63;2.47;;;;;;;;;;5037941;28;20021;-70
2022/11/24 03:26:12;;;;;;;4.90;2.17;;;;;;;;;;5036926;28;20120;-71
2022/11/24 03:28:38;;;;;;;8.02;1.75;;;;;;;;;;5038233;28;20268;-69
2022/11/24 03:31:03;;;;;;;3.10;1.33;;;;;;;;;;5037477;28;20029;-71
2022/11/24 03:33:29;;;;;;;5.75;1.60;;;;;;;;;;5027557;28;20014;-70
2022/11/24 03:35:54;;;;;;;5.40;2.03;;;;;;;;;;5039368;28;20049;-71
2022/11/24 03:38:19;;;;;;;7.25;2.20;;;;;;;;;;5040024;28;20021;-71
2022/11/24 03:40:45;;;;;;;5.07;1.40;;;;;;;;;;5034103;28;20028;-75
2022/11/24 03:43:10;;;;;;;8.20;2.30;;;;;;;;;;5038096;28;20491;-79
2022/11/24 03:45:35;;;;;;;11.30;2.27;;;;;;;;;;5031326;28;21069;-81
2022/11/24 03:48:01;;;;;;;6.57;1.85;;;;;;;;;;5049244;28;20741;-80
2022/11/24 03:50:26;;;;;;;6.78;2.22;;;;;;;;;;5042577;28;20143;-80
2022/11/24 03:52:51;;;;;;;7.10;1.83;;;;;;;;;;5043451;28;20484;-80
2022/11/24 03:55:17;;;;;;;3.58;1.60;;;;;;;;;;5035460;28;20033;-79
2022/11/24 03:57:42;;;;;;;3.07;1.43;;;;;;;;;;5041825;28;20101;-71
2022/11/24 04:00:08;;;;;;;4.15;1.65;;;;;;;;;;5032082;28;20075;-75
2022/11/24 04:02:33;;;;;;;2.92;1.42;;;;;;;;;;5034528;28;20017;-73
2022/11/24 04:04:58;;;;;;;11.90;2.00;;;;;;;;;;5036460;28;20543;-74
2022/11/24 04:07:23;;;;;;;3.60;1.63;;;;;;;;;;5035477;28;20017;-73
2022/11/24 04:09:49;;;;;;;4.73;1.53;;;;;;;;;;5043609;28;20057;-72
2022/11/24 04:14:58;;;;;;;4.93;1.63;;;;;;;;;;5042849;28;20316;-72
2022/11/24 04:17:23;;;;;;;5.80;1.80;;;;;;;;;;5045592;28;20490;-70
2022/11/24 04:19:48;;;;;;;6.63;1.73;;;;;;;;;;5042788;28;20773;-74
2022/11/24 04:22:13;;;;;;;10.00;2.30;;;;;;;;;;5052535;28;20343;-75
2022/11/24 04:24:39;;;;;;;4.83;1.30;;;;;;;;;;5044344;28;20813;-74
2022/11/24 04:27:04;;;;;;;8.50;1.63;;;;;;;;;;5035325;28;20292;-74
2022/11/24 04:29:29;;;;;;;10.33;1.70;;;;;;;;;;5038855;28;20032;-75
2022/11/24 04:31:54;;;;;;;4.90;1.45;;;;;;;;;;5040994;28;20308;-75
2022/11/24 04:34:20;;;;;;;3.85;1.50;;;;;;;;;;5044748;28;20021;-74
2022/11/24 04:36:45;;;;;;;2.38;1.15;;;;;;;;;;5037664;28;20386;-71
2022/11/24 04:39:10;;;;;;;3.70;1.50;;;;;;;;;;5041049;28;20017;-71
2022/11/24 04:41:35;;;;;;;6.55;1.58;;;;;;;;;;5038591;28;20333;-70
2022/11/24 04:44:01;;;;;;;5.47;1.65;;;;;;;;;;5047701;28;20041;-70
2022/11/24 04:46:26;;;;;;;4.60;2.43;;;;;;;;;;5034076;28;20484;-71
2022/11/24 04:48:51;;;;;;;5.37;1.50;;;;;;;;;;5042460;28;20775;-71
2022/11/24 04:51:16;;;;;;;7.85;1.80;;;;;;;;;;5045615;28;20793;-70
2022/11/24 04:53:42;;;;;;;3.83;2.47;;;;;;;;;;5037618;28;20328;-75
2022/11/24 04:56:07;;;;;;;16.42;1.60;;;;;;;;;;5049727;28;20286;-88
2022/11/24 04:58:32;;;;;;;5.53;1.13;;;;;;;;;;5042518;28;20495;-88
2022/11/24 05:00:58;;;;;;;4.93;1.33;;;;;;;;;;5044286;28;20029;-87
2022/11/24 05:03:23;;;;;;;4.65;1.40;;;;;;;;;;5047533;28;20279;-88
2022/11/24 05:05:48;;;;;;;7.53;2.27;;;;;;;;;;5049391;28;20035;-88
2022/11/24 05:08:14;;;;;;;4.63;1.67;;;;;;;;;;5055510;28;20255;-88
2022/11/24 05:10:39;;;;;;;9.25;2.40;;;;;;;;;;5057094;28;20016;-88
2022/11/24 05:13:05;;;;;;;8.48;1.85;;;;;;;;;;5045621;28;20511;-76
2022/11/24 05:15:31;;;;;;;5.82;1.40;;;;;;;;;;5042725;28;20026;-71
2022/11/24 05:17:57;;;;;;;6.97;1.20;;;;;;;;;;5041058;28;20020;-72
2022/11/24 05:20:23;;;;;;;6.40;1.75;;;;;;;;;;5044205;28;20029;-71
2022/11/24 05:22:48;;;;;;;6.07;1.88;;;;;;;;;;5044921;28;20617;-70
2022/11/24 05:25:13;;;;;;;6.50;1.70;;;;;;;;;;5039409;28;20084;-72
2022/11/24 05:27:39;;;;;;;5.20;1.40;;;;;;;;;;5045777;28;20041;-73
2022/11/24 05:30:05;;;;;;;5.68;1.88;;;;;;;;;;5043489;28;20502;-80
2022/11/24 05:32:30;;;;;;;4.78;1.92;;;;;;;;;;5038108;28;20655;-80
2022/11/24 05:34:56;;;;;;;6.10;1.80;;;;;;;;;;5040960;28;20109;-77
2022/11/24 05:37:22;;;;;;;4.07;1.58;;;;;;;;;;5041786;28;20263;-75
2022/11/24 05:39:48;;;;;;;4.10;1.85;;;;;;;;;;5050727;28;20032;-75
2022/11/24 05:44:57;;;;;;;9.32;2.42;;;;;;;;;;5036285;28;20028;-74
2022/11/24 05:47:22;;;;;;;5.07;1.48;;;;;;;;;;5042622;28;20024;-73
2022/11/24 05:49:47;;;;;;;5.88;2.33;;;;;;;;;;5049768;28;20055;-74
2022/11/24 05:52:13;;;;;;;6.25;1.70;;;;;;;;;;5060310;28;20086;-70
2022/11/24 05:54:39;;;;;;;5.85;1.60;;;;;;;;;;5053638;28;20397;-69
2022/11/24 05:57:04;;;;;;;6.53;2.00;;;;;;;;;;5046999;28;20023;-68
2022/11/24 05:59:29;;;;;;;7.05;2.55;;;;;;;;;;5048789;28;20080;-72
2022/11/24 06:01:54;;;;;;;7.33;2.37;;;;;;;;;;5036084;28;20025;-71
2022/11/24 06:04:19;;;;;;;7.32;2.92;;;;;;;;;;5042547;28;20270;-70
2022/11/24 06:06:45;;;;;;;15.75;2.60;;;;;;;;;;5041577;28;20376;-82
2022/11/24 06:09:10;;;;;;;5.78;2.00;;;;;;;;;;5040851;28;20017;-75
2022/11/24 06:11:35;;;;;;;5.47;1.60;;;;;;;;;;5038088;28;20026;-75
2022/11/24 06:14:01;;;;;;;6.27;2.37;;;;;;;;;;5042095;28;20038;-73
2022/11/24 06:16:26;;;;;;;5.22;1.60;;;;;;;;;;5043759;28;20288;-72
2022/11/24 06:18:51;;;;;;;6.32;1.92;;;;;;;;;;5039987;28;20358;-75
2022/11/24 06:21:16;;;;;;;8.57;2.10;;;;;;;;;;5040898;28;20025;-76
2022/11/24 06:23:42;;;;;;;5.23;2.00;;;;;;;;;;5047205;28;20314;-76
2022/11/24 06:26:08;;;;;;;5.68;1.77;;;;;;;;;;5047977;28;20291;-72
2022/11/24 06:28:33;;;;;;;7.88;2.05;;;;;;;;;;5046498;28;20389;-72
2022/11/24 06:30:59;;;;;;;8.98;2.22;;;;;;;;;;5056176;28;20084;-72
2022/11/24 06:33:25;;;;;;;4.35;2.13;;;;;;;;;;5047337;28;20016;-73
2022/11/24 06:35:50;;;;;;;6.35;2.45;;;;;;;;;;5042687;28;20036;-75
2022/11/24 06:38:16;;;;;;;8.07;2.03;;;;;;;;;;5038467;28;20014;-73
2022/11/24 06:40:41;;;;;;;5.25;1.60;;;;;;;;;;5040810;28;20146;-76
2022/11/24 06:43:07;;;;;;;7.57;2.40;;;;;;;;;;5057128;28;20028;-69
2022/11/24 06:45:32;;;;;;;6.00;2.30;;;;;;;;;;5044512;28;20774;-72
2022/11/24 06:47:57;;;;;;;5.80;2.45;;;;;;;;;;5048038;28;20032;-83
2022/11/24 06:50:23;;;;;;;6.95;2.55;;;;;;;;;;5049623;28;20020;-79
2022/11/24 06:52:48;;;;;;;8.20;2.17;;;;;;;;;;5052547;28;20021;-79
2022/11/24 06:55:13;;;;;;;6.70;2.70;;;;;;;;;;5042967;28;20044;-77
2022/11/24 06:57:39;;;;;;;6.85;1.90;;;;;;;;;;5040127;28;20112;-79
2022/11/24 07:00:05;;;;;;;14.57;3.35;;;;;;;;;;5045566;28;20023;-80
2022/11/24 07:02:30;;;;;;;12.77;3.17;;;;;;;;;;5057393;28;20096;-79
2022/11/24 07:04:55;;;;;;;11.25;3.33;;;;;;;;;;5043984;28;20034;-78
2022/11/24 07:07:21;;;;;;;14.65;2.90;;;;;;;;;;5045151;28;20035;-77
2022/11/24 07:09:46;;;;;;;7.60;1.97;;;;;;;;;;5044142;28;20049;-78
2022/11/24 07:12:14;;;;;;;10.40;2.53;;;;;;;;;;5043976;28;20350;-79
2022/11/24 07:14:39;;;;;;;5.78;2.15;;;;;;;;;;5043767;28;20045;-79
2022/11/24 07:17:05;;;;;;;9.60;2.55;;;;;;;;;;5053356;28;20074;-86
2022/11/24 07:19:30;;;;;;;9.13;2.50;;;;;;;;;;5043999;28;20028;-85
2022/11/24 07:21:56;;;;;;;9.75;2.97;;;;;;;;;;5041936;28;20012;-77
2022/11/24 07:24:21;;;;;;;14.73;3.22;;;;;;;;;;5041714;28;20022;-75
2022/11/24 07:26:46;;;;;;;12.80;3.55;;;;;;;;;;5041104;28;20516;-74
2022/11/24 07:29:12;;;;;;;12.33;4.50;;;;;;;;;;5040720;28;20069;-74
2022/11/24 07:31:37;;;;;;;11.60;3.08;;;;;;;;;;5042898;28;20796;-75
2022/11/24 07:34:02;;;;;;;12.43;4.13;;;;;;;;;;5044833;28;20052;-77
2022/11/24 07:36:28;;;;;;;10.37;3.17;;;;;;;;;;5043904;28;20275;-82
2022/11/24 07:38:53;;;;;;;10.00;2.90;;;;;;;;;;5043684;28;20785;-75
2022/11/24 07:41:19;;;;;;;12.40;3.37;;;;;;;;;;5034210;28;20022;-85
2022/11/24 07:43:44;;;;;;;8.93;2.70;;;;;;;;;;5041223;28;20264;-76
2022/11/24 07:46:11;;;;;;;10.07;3.30;;;;;;;;;;5037664;28;20024;-75
2022/11/24 07:48:36;;;;;;;9.25;3.33;;;;;;;;;;5047977;28;20060;-73
2022/11/24 07:51:03;;;;;;;13.93;2.58;;;;;;;;;;5044430;28;20032;-74
2022/11/24 07:53:29;;;;;;;10.07;3.92;;;;;;;;;;5039305;28;20112;-75
2022/11/24 07:55:55;;;;;;;9.55;2.58;;;;;;;;;;5035229;28;20037;-77
2022/11/24 07:58:20;;;;;;;14.50;2.92;;;;;;;;;;5037800;28;20083;-73
2022/11/24 08:00:48;;;;;;;10.40;3.08;;;;;;;;;;5042671;28;20029;-73
2022/11/24 08:03:14;;;;;;;14.05;3.25;;;;;;;;;;5034062;28;20012;-72
2022/11/24 08:05:39;;;;;;;12.23;2.88;;;;;;;;;;5045136;28;20321;-73
2022/11/24 08:08:04;;;;;;;18.00;3.67;;;;;;;;;;5055132;28;20029;-73
2022/11/24 08:10:29;;;;;;;12.93;2.93;;;;;;;;;;5045032;28;20473;-72
2022/11/24 08:12:59;;;;;;;12.05;2.85;;;;;;;;;;5049135;28;20310;-74
2022/11/24 08:15:24;;;;;;;7.68;2.42;;;;;;;;;;5036299;28;20025;-69
2022/11/24 08:17:49;;;;;;;8.00;2.43;;;;;;;;;;5044041;28;20546;-83
2022/11/24 08:20:14;;;;;;;6.80;2.40;;;;;;;;;;5034448;28;20283;-73
2022/11/24 08:22:40;;;;;;;6.72;2.65;;;;;;;;;;5036946;28;20476;-76
2022/11/24 08:25:05;;;;;;;8.88;2.67;;;;;;;;;;5035281;28;20476;-75
2022/11/24 08:27:31;;;;;;;9.55;2.15;;;;;;;;;;5044817;28;20016;-74
2022/11/24 08:29:56;;;;;;;6.68;1.88;;;;;;;;;;5038736;28;20571;-75
2022/11/24 08:32:21;;;;;;;7.80;2.53;;;;;;;;;;5035373;28;20021;-74
2022/11/24 08:34:46;;;;;;;11.68;2.08;;;;;;;;;;5045988;28;20203;-75
2022/11/24 08:37:12;;;;;;;8.88;1.92;;;;;;;;;;5036967;28;20036;-72
2022/11/24 08:39:37;;;;;;;12.88;2.53;;;;;;;;;;5056135;28;20029;-74
2022/11/24 08:42:02;;;;;;;4.57;1.50;;;;;;;;;;5036005;28;20026;-74
2022/11/24 08:44:28;;;;;;;5.78;1.42;;;;;;;;;;5041855;28;20881;-76
2022/11/24 08:46:53;;;;;;;5.87;1.67;;;;;;;;;;5049516;28;20056;-74
2022/11/24 08:49:20;;;;;;;4.93;1.40;;;;;;;;;;5038800;28;20280;-74
2022/11/24 08:51:47;;;;;;;7.70;1.35;;;;;;;;;;5038301;28;20116;-70
2022/11/24 08:54:14;;;;;;;6.95;1.20;;;;;;;;;;5039755;28;20383;-78
2022/11/24 08:56:39;;;;;;;3.75;1.92;;;;;;;;;;5040683;28;20028;-70
2022/11/24 08:59:04;;;;;;;6.50;1.40;;;;;;;;;;5031105;28;20418;-74
2022/11/24 09:01:30;;;;;;;4.50;1.67;;;;;;;;;;5034056;28;20033;-70
2022/11/24 09:03:55;;;;;;;4.43;1.23;;;;;;;;;;5039497;28;20362;-71
2022/11/24 09:06:22;;;;;;;2.65;1.10;;;;;;;;;;5048619;28;20057;-70
2022/11/24 09:08:47;;;;;;;6.93;1.48;;;;;;;;;;5041570;28;20064;-72
2022/11/24 09:11:14;;;;;;;5.25;1.95;;;;;;;;;;5047055;28;20026;-73
2022/11/24 09:13:39;;;;;;;2.88;1.45;;;;;;;;;;5042442;28;20412;-74
2022/11/24 09:16:06;;;;;;;3.00;1.20;;;;;;;;;;5048519;28;20033;-74
2022/11/24 09:18:32;;;;;;;8.30;1.77;;;;;;;;;;5042973;28;20211;-75
2022/11/24 09:21:07;;;;;;;2.30;1.40;;;;;;;;;;5047063;28;20060;-77
2022/11/24 09:23:33;;;;;;;3.08;1.48;;;;;;;;;;5047940;28;20024;-77
2022/11/24 09:26:06;;;;;;;3.15;1.42;;;;;;;;;;5043393;28;20108;-78
2022/11/24 09:28:31;;;;;;;4.90;2.33;;;;;;;;;;5049144;28;20089;-76
2022/11/24 09:31:02;;;;;;;6.10;1.73;;;;;;;;;;5054221;28;20410;-75
2022/11/24 09:33:27;;;;;;;6.70;1.90;;;;;;;;;;5042721;28;20127;-78
2022/11/24 09:35:52;;;;;;;3.03;1.10;;;;;;;;;;5044314;28;20122;-80
2022/11/24 09:38:18;;;;;;;3.60;1.30;;;;;;;;;;5043571;28;20025;-79
2022/11/24 09:40:43;;;;;;;2.93;1.10;;;;;;;;;;5054767;28;20045;-80
2022/11/24 09:43:14;;;;;;;2.33;1.07;;;;;;;;;;5060629;28;20601;-79
2022/11/24 09:45:46;;;;;;;3.15;1.05;;;;;;;;;;5044768;28;20463;-78
2022/11/24 09:48:20;;;;;;;5.38;1.58;;;;;;;;;;5039887;28;20491;-79
2022/11/24 09:50:47;;;;;;;3.25;1.00;;;;;;;;;;5040983;28;20021;-71
2022/11/24 09:53:27;;;;;;;2.90;1.30;;;;;;;;;;5047916;28;20049;-71
2022/11/24 09:55:55;;;;;;;7.03;1.25;;;;;;;;;;5050053;28;20495;-69
2022/11/24 09:58:20;;;;;;;5.05;1.25;;;;;;;;;;5046036;28;20041;-72
2022/11/24 10:00:47;;;;;;;2.23;1.00;;;;;;;;;;5038360;28;20488;-70
2022/11/24 10:03:18;;;;;;;1.77;0.90;;;;;;;;;;5042629;28;20263;-73
2022/11/24 10:05:44;;;;;;;3.60;1.10;;;;;;;;;;5043603;28;20387;-78
2022/11/24 10:08:28;;;;;;;2.85;1.02;;;;;;;;;;5039983;28;20014;-80
2022/11/24 10:10:53;;;;;;;3.90;0.98;;;;;;;;;;5053112;28;20036;-80
2022/11/24 10:13:44;;;;;;;3.58;0.85;;;;;;;;;;5042565;28;20041;-74
2022/11/24 10:16:33;;;;;;;3.63;1.17;;;;;;;;;;5045207;28;20037;-75
2022/11/24 10:19:21;;;;;;;3.42;1.00;;;;;;;;;;5037976;28;20380;-73
2022/11/24 10:21:55;;;;;;;2.30;1.10;;;;;;;;;;5040048;28;21553;-73
2022/11/24 10:24:21;;;;;;;2.33;1.13;;;;;;;;;;5039465;28;20108;-71
2022/11/24 10:26:58;;;;;;;3.78;1.10;;;;;;;;;;5044022;28;20101;-75
2022/11/24 10:29:27;;;;;;;2.90;1.05;;;;;;;;;;5048038;28;20029;-71
2022/11/24 10:31:54;;;;;;;5.37;1.83;;;;;;;;;;5043346;28;20010;-71
2022/11/24 10:34:28;;;;;;;4.35;1.33;;;;;;;;;;5035248;28;20276;-72
2022/11/24 10:37:13;;;;;;;7.10;0.93;;;;;;;;;;5045885;28;20029;-70
2022/11/24 10:39:57;;;;;;;2.05;0.80;;;;;;;;;;5041925;28;20379;-71
2022/11/24 10:42:26;;;;;;;4.90;0.85;;;;;;;;;;5038719;28;20433;-75
2022/11/24 10:44:58;;;;;;;1.95;0.80;;;;;;;;;;5051193;28;20033;-71
2022/11/24 10:47:23;;;;;;;2.60;0.90;;;;;;;;;;5054489;28;20079;-75
2022/11/24 10:49:53;;;;;;;3.22;0.68;;;;;;;;;;5046409;28;20017;-82
2022/11/24 10:52:21;;;;;;;1.65;0.70;;;;;;;;;;5043528;28;20014;-81
2022/11/24 10:55:12;;;;;;;1.65;0.85;;;;;;;;;;5047676;28;20032;-80
2022/11/24 10:57:39;;;;;;;2.55;0.80;;;;;;;;;;5043014;28;20025;-80
2022/11/24 11:00:19;;;;;;;2.05;0.90;;;;;;;;;;5033959;28;20101;-80
2022/11/24 11:02:48;;;;;;;1.58;0.90;;;;;;;;;;5041703;28;20074;-76
2022/11/24 11:05:40;;;;;;;3.38;1.35;;;;;;;;;;5038304;28;21333;-74
2022/11/24 11:08:26;;;;;;;1.70;0.80;;;;;;;;;;5042192;28;21664;-72
2022/11/24 11:11:12;;;;;;;2.38;0.95;;;;;;;;;;5045449;28;20037;-72
2022/11/24 11:13:49;;;;;;;2.50;0.95;;;;;;;;;;5038859;28;20036;-71
2022/11/24 11:16:22;;;;;;;1.92;0.90;;;;;;;;;;5048012;28;20115;-70
2022/11/24 11:18:48;;;;;;;1.77;1.00;;;;;;;;;;5051402;28;20037;-73
2022/11/24 11:21:23;;;;;;;1.33;1.02;;;;;;;;;;5040847;28;20483;-82
2022/11/24 11:23:50;;;;;;;2.13;1.00;;;;;;;;;;5045510;28;20056;-77
2022/11/24 11:26:16;;;;;;;1.65;0.98;;;;;;;;;;5050200;28;20021;-78
2022/11/24 11:28:55;;;;;;;2.72;0.80;;;;;;;;;;5040586;28;20026;-78
2022/11/24 11:31:21;;;;;;;2.72;0.82;;;;;;;;;;5047957;28;20059;-78
2022/11/24 11:33:57;;;;;;;2.92;0.77;;;;;;;;;;5045968;28;20543;-78
2022/11/24 11:36:23;;;;;;;1.50;0.95;;;;;;;;;;5044272;28;20094;-80
2022/11/24 11:38:48;;;;;;;2.42;1.10;;;;;;;;;;5043115;28;20028;-70
2022/11/24 11:41:25;;;;;;;1.70;1.60;;;;;;;;;;5043864;28;20025;-80
2022/11/24 11:43:59;;;;;;;5.60;0.93;;;;;;;;;;5051163;28;20018;-80
2022/11/24 11:46:27;;;;;;;1.90;0.93;;;;;;;;;;5032231;28;20056;-79
2022/11/24 11:48:53;;;;;;;1.70;1.13;;;;;;;;;;5040149;28;20290;-78
2022/11/24 11:51:41;;;;;;;2.00;0.90;;;;;;;;;;5044360;28;20049;-81
2022/11/24 11:54:06;;;;;;;3.40;1.00;;;;;;;;;;5040148;28;20118;-79
2022/11/24 11:56:34;;;;;;;2.70;1.10;;;;;;;;;;5048271;28;20059;-76
2022/11/24 11:59:05;;;;;;;1.25;0.80;;;;;;;;;;5043386;28;20029;-75
2022/11/24 12:01:47;;;;;;;1.25;0.68;;;;;;;;;;5037011;28;20030;-76
2022/11/24 12:04:19;;;;;;;1.48;0.70;;;;;;;;;;5035366;28;20389;-74
2022/11/24 12:06:47;;;;;;;3.47;1.23;;;;;;;;;;5048981;28;20021;-75
2022/11/24 12:09:19;;;;;;;1.83;1.02;;;;;;;;;;5037113;28;20017;-76
2022/11/24 12:11:53;;;;;;;1.80;1.38;;;;;;;;;;5038872;28;20014;-78
2022/11/24 12:14:25;;;;;;;2.75;1.40;;;;;;;;;;5039994;28;20090;-74
2022/11/24 12:16:57;;;;;;;5.60;1.13;;;;;;;;;;5047949;28;20146;-83
2022/11/24 12:19:34;;;;;;;4.55;1.25;;;;;;;;;;5042326;28;20416;-72
2022/11/24 12:22:00;;;;;;;5.38;0.90;;;;;;;;;;5041887;28;20073;-70
2022/11/24 12:24:43;;;;;;;2.63;1.58;;;;;;;;;;5044005;28;20022;-71
2022/11/24 12:27:27;;;;;;;8.45;2.78;;;;;;;;;;5039272;28;20400;-70
2022/11/24 12:30:02;;;;;;;4.20;1.75;;;;;;;;;;5039358;28;20057;-71
2022/11/24 12:32:27;;;;;;;5.53;1.42;;;;;;;;;;5041466;28;20063;-74
2022/11/24 12:35:05;;;;;;;4.88;1.60;;;;;;;;;;5044209;28;20057;-84
2022/11/24 12:37:49;;;;;;;6.97;1.67;;;;;;;;;;5038363;28;20555;-70
2022/11/24 12:40:33;;;;;;;6.35;1.65;;;;;;;;;;5040111;28;20107;-70
2022/11/24 12:43:10;;;;;;;3.30;1.52;;;;;;;;;;5039332;28;20022;-72
2022/11/24 12:45:38;;;;;;;3.42;1.25;;;;;;;;;;5038677;28;20083;-72
2022/11/24 12:48:22;;;;;;;3.28;1.00;;;;;;;;;;5045122;28;20063;-70
2022/11/24 12:50:48;;;;;;;5.40;1.55;;;;;;;;;;5050351;28;20057;-71
2022/11/24 12:53:13;;;;;;;3.20;1.58;;;;;;;;;;5046860;28;20024;-70
2022/11/24 12:55:39;;;;;;;7.10;1.45;;;;;;;;;;5053328;28;20033;-69
2022/11/24 12:58:07;;;;;;;6.22;1.52;;;;;;;;;;5045568;28;21632;-71
2022/11/24 13:00:39;;;;;;;8.07;2.38;;;;;;;;;;5043179;28;20044;-72
2022/11/24 13:03:20;;;;;;;6.57;1.38;;;;;;;;;;5040018;28;20048;-69
2022/11/24 13:05:51;;;;;;;7.78;1.90;;;;;;;;;;5038013;28;20073;-71
2022/11/24 13:08:17;;;;;;;4.45;1.98;;;;;;;;;;5041119;28;20376;-69
2022/11/24 13:10:42;;;;;;;5.38;2.03;;;;;;;;;;5041067;28;20112;-71
2022/11/24 13:13:09;;;;;;;6.53;1.60;;;;;;;;;;5044441;28;20120;-74
2022/11/24 13:15:52;;;;;;;5.30;1.50;;;;;;;;;;5038582;28;20044;-74
2022/11/24 13:18:36;;;;;;;6.70;1.58;;;;;;;;;;5049404;28;20020;-74
2022/11/24 13:21:01;;;;;;;6.97;1.88;;;;;;;;;;5047081;28;20033;-73
2022/11/24 13:23:27;;;;;;;6.17;1.60;;;;;;;;;;5040149;28;20090;-74
2022/11/24 13:26:11;;;;;;;3.47;1.60;;;;;;;;;;5047318;28;20268;-73
2022/11/24 13:28:55;;;;;;;3.85;1.73;;;;;;;;;;5050007;28;20017;-76
2022/11/24 13:31:21;;;;;;;12.98;2.50;;;;;;;;;;5041140;28;20028;-76
2022/11/24 13:33:46;;;;;;;5.40;1.75;;;;;;;;;;5040511;28;20380;-73
2022/11/24 13:36:24;;;;;;;10.77;2.20;;;;;;;;;;5039246;28;20077;-75
2022/11/24 13:38:49;;;;;;;7.40;1.85;;;;;;;;;;5049240;28;20036;-78
2022/11/24 13:41:30;;;;;;;8.35;1.85;;;;;;;;;;5051762;28;20017;-74
2022/11/24 13:44:13;;;;;;;8.60;1.95;;;;;;;;;;5044384;28;20175;-75
2022/11/24 13:46:55;;;;;;;12.73;2.28;;;;;;;;;;5041850;28;20026;-76
2022/11/24 13:49:20;;;;;;;8.10;2.53;;;;;;;;;;5042828;28;20029;-78
2022/11/24 13:51:45;;;;;;;5.57;1.80;;;;;;;;;;5035574;28;20063;-74
2022/11/24 13:54:10;;;;;;;10.43;2.10;;;;;;;;;;5044152;28;20116;-75
2022/11/24 13:56:36;;;;;;;5.97;2.17;;;;;;;;;;5037093;28;20315;-75
2022/11/24 13:59:14;;;;;;;7.18;2.03;;;;;;;;;;5052503;28;20017;-74
2022/11/24 14:01:41;;;;;;;7.68;2.38;;;;;;;;;;5042883;28;20033;-77
2022/11/24 14:04:20;;;;;;;6.15;1.73;;;;;;;;;;5039643;28;20068;-74
2022/11/24 14:06:47;;;;;;;5.07;2.20;;;;;;;;;;5045031;28;20048;-71
2022/11/24 14:09:24;;;;;;;6.50;1.92;;;;;;;;;;5056501;28;20024;-72
2022/11/24 14:11:58;;;;;;;6.38;1.70;;;;;;;;;;5039056;28;20041;-72
2022/11/24 14:14:24;;;;;;;9.65;2.88;;;;;;;;;;5043064;28;20080;-73
2022/11/24 14:17:04;;;;;;;6.47;1.73;;;;;;;;;;5046707;28;20064;-73
2022/11/24 14:19:30;;;;;;;9.77;2.45;;;;;;;;;;5049118;28;20074;-73
2022/11/24 14:21:55;;;;;;;6.93;1.80;;;;;;;;;;5042078;28;20033;-72
2022/11/24 14:24:23;;;;;;;6.38;1.90;;;;;;;;;;5049883;28;20124;-78
2022/11/24 14:26:49;;;;;;;7.82;2.28;;;;;;;;;;5044452;28;20082;-78
2022/11/24 14:29:14;;;;;;;4.95;1.73;;;;;;;;;;5050971;28;20024;-79
2022/11/24 14:31:39;;;;;;;6.55;1.83;;;;;;;;;;5044251;28;20016;-82
2022/11/24 14:34:10;;;;;;;7.43;1.83;;;;;;;;;;5045907;28;20067;-78
2022/11/24 14:36:36;;;;;;;7.60;2.22;;;;;;;;;;5041792;28;20028;-82
2022/11/24 14:39:02;;;;;;;9.18;2.03;;;;;;;;;;5044766;28;20013;-79
2022/11/24 14:41:27;;;;;;;4.78;1.95;;;;;;;;;;5042575;28;20472;-78
2022/11/24 14:44:03;;;;;;;5.97;2.03;;;;;;;;;;5042986;28;20021;-72
2022/11/24 14:46:28;;;;;;;10.07;1.88;;;;;;;;;;5042868;28;20075;-75
2022/11/24 14:48:54;;;;;;;9.70;2.08;;;;;;;;;;5034900;28;20014;-79
2022/11/24 14:51:20;;;;;;;12.48;2.13;;;;;;;;;;5045682;28;20026;-79